KBTV

Burlington International Airport

Airport
ICAO code
KBTV
IATA Code
BTV
Summary
ICAO Region
NAM
ICAO Territory
Location

Burlington, Vermont

Serving
Burlington and Quebec
Elevation
335 ft
Coordinates
44° 28' 9" N , 73° 9' 17" W
KCC
Airport WX
Cumulonimbus
Metar
KBTV 220754Z AUTO 00000KT 10SM CLR 15/13 A3007 RMK AO2 SLP182 T01500133

Description

Burlington International Airport is a joint use civil-military (ANG) airport located 3 nm east of Burlington, Vermont, USA.

Airport map

Aerial View

SKYbrary Partners:

Safety knowledge contributed by: